Time;durP1;ratioP1;P1;durP2;ratioP2;P2;SDS_P1;SDS_P2;PMS_P1;PMS_P2;Temp;Humidity;BMP_temperature;BMP_pressure;BME280_temperature;BME280_humidity;BME280_pressure;Samples;Min_cycle;Max_cycle;Signal;HPM_P1;HPM_P2
2022/05/01 00:00:57;;;;;;;2.90;1.75;;;23.00;38.90;;;;;;5005501;28;20673;-42
2022/05/01 00:03:33;;;;;;;2.70;1.52;;;23.00;38.90;;;;;;5004005;28;20065;-42
2022/05/01 00:06:04;;;;;;;2.70;1.63;;;23.00;38.90;;;;;;5005535;28;20021;-42
2022/05/01 00:08:31;;;;;;;2.67;1.65;;;23.00;38.90;;;;;;5006211;28;20534;-43
2022/05/01 00:10:57;;;;;;;2.63;1.73;;;23.00;38.90;;;;;;5005245;28;20383;-43
2022/05/01 00:13:24;;;;;;;2.50;1.42;;;23.00;38.90;;;;;;5005291;28;20258;-43
2022/05/01 00:15:50;;;;;;;2.38;1.23;;;23.00;38.90;;;;;;5005267;28;20044;-42
2022/05/01 00:18:17;;;;;;;2.63;1.58;;;23.00;39.00;;;;;;5005285;28;20660;-43
2022/05/01 00:20:43;;;;;;;3.28;1.42;;;23.00;38.90;;;;;;5004601;28;20030;-43
2022/05/01 00:23:08;;;;;;;3.03;1.65;;;23.00;39.00;;;;;;5004954;28;20022;-43
2022/05/01 00:25:35;;;;;;;2.90;1.80;;;23.00;38.90;;;;;;5004935;28;20033;-42
2022/05/01 00:28:01;;;;;;;2.63;1.60;;;23.00;38.90;;;;;;5005317;28;20041;-42
2022/05/01 00:30:26;;;;;;;2.55;1.55;;;23.00;39.00;;;;;;5004675;28;20037;-43
2022/05/01 00:38:24;;;;;;;3.13;1.85;;;22.90;38.90;;;;;;5004504;28;20029;-43
2022/05/01 00:40:51;;;;;;;2.30;1.45;;;23.00;39.00;;;;;;5004507;28;20037;-43
2022/05/01 00:43:17;;;;;;;2.88;1.67;;;22.90;39.00;;;;;;5004648;28;20065;-43
2022/05/01 00:45:42;;;;;;;2.40;1.15;;;22.90;39.00;;;;;;5004723;28;20061;-43
2022/05/01 00:48:08;;;;;;;3.00;1.88;;;22.90;39.00;;;;;;5005040;28;20288;-42
2022/05/01 00:50:35;;;;;;;3.08;1.85;;;23.00;39.00;;;;;;5004441;28;20675;-43
2022/05/01 00:53:04;;;;;;;3.00;1.50;;;22.90;39.00;;;;;;5004333;28;20433;-42
2022/05/01 00:55:34;;;;;;;2.58;1.50;;;22.90;39.00;;;;;;5004757;28;20030;-43
2022/05/01 00:58:01;;;;;;;3.35;1.60;;;22.90;39.00;;;;;;5004847;28;20034;-42
2022/05/01 01:00:27;;;;;;;2.70;1.55;;;22.90;39.00;;;;;;5004353;28;20029;-43
2022/05/01 01:02:53;;;;;;;2.15;1.30;;;22.90;39.00;;;;;;5003573;28;20030;-42
2022/05/01 01:05:19;;;;;;;2.58;1.60;;;22.90;39.10;;;;;;5004147;28;20605;-42
2022/05/01 01:07:45;;;;;;;2.67;1.70;;;22.90;39.00;;;;;;5004498;28;20082;-43
2022/05/01 01:10:11;;;;;;;2.67;1.58;;;22.90;39.00;;;;;;5004623;28;20510;-42
2022/05/01 01:12:55;;;;;;;2.85;1.70;;;22.90;39.00;;;;;;5003948;28;20034;-42
2022/05/01 01:15:29;;;;;;;2.72;1.58;;;22.90;39.00;;;;;;5008145;28;20061;-43
2022/05/01 01:17:56;;;;;;;2.38;1.52;;;22.90;39.00;;;;;;5008163;28;20125;-43
2022/05/01 01:20:27;;;;;;;2.38;1.52;;;22.90;39.00;;;;;;5006637;28;20065;-43
2022/05/01 01:22:55;;;;;;;3.25;1.75;;;22.90;39.00;;;;;;5007864;28;20026;-43
2022/05/01 01:25:26;;;;;;;3.55;2.03;;;22.90;39.00;;;;;;5008198;28;20034;-43
2022/05/01 01:27:54;;;;;;;2.50;1.50;;;22.90;39.00;;;;;;5007659;28;20028;-42
2022/05/01 01:33:06;;;;;;;3.10;1.50;;;22.90;39.00;;;;;;5006078;28;20454;-42
2022/05/01 01:35:35;;;;;;;2.90;1.63;;;22.80;38.90;;;;;;5007907;28;20489;-43
2022/05/01 01:38:01;;;;;;;2.92;1.65;;;22.80;39.00;;;;;;5007090;28;20084;-43
2022/05/01 01:40:38;;;;;;;3.53;1.55;;;22.80;39.00;;;;;;5007780;28;20469;-43
2022/05/01 01:43:05;;;;;;;2.42;1.48;;;22.80;39.00;;;;;;5007728;28;20168;-43
2022/05/01 01:45:31;;;;;;;2.83;1.52;;;22.80;39.00;;;;;;5008080;28;20044;-43
2022/05/01 01:48:09;;;;;;;3.45;2.00;;;22.80;39.10;;;;;;5007661;28;20029;-43
2022/05/01 01:50:35;;;;;;;3.03;1.70;;;22.80;39.70;;;;;;5006594;28;20065;-42
2022/05/01 01:53:00;;;;;;;2.28;1.40;;;22.80;39.00;;;;;;5008222;28;20029;-43
2022/05/01 01:55:26;;;;;;;3.30;1.50;;;22.80;39.00;;;;;;5008144;28;20033;-43
2022/05/01 01:57:52;;;;;;;2.42;1.35;;;22.80;39.00;;;;;;5008461;28;20032;-43
2022/05/01 02:00:18;;;;;;;2.50;1.55;;;22.80;39.00;;;;;;5008236;28;20022;-42
2022/05/01 02:02:43;;;;;;;3.42;1.80;;;22.80;39.00;;;;;;5007325;28;20101;-42
2022/05/01 02:05:09;;;;;;;2.67;1.48;;;22.80;39.00;;;;;;5007907;28;20637;-43
2022/05/01 02:07:35;;;;;;;1.85;1.35;;;22.80;39.00;;;;;;5008194;28;20504;-43
2022/05/01 02:10:03;;;;;;;3.17;1.60;;;22.80;39.00;;;;;;5008276;28;20105;-43
2022/05/01 02:12:29;;;;;;;3.03;1.70;;;22.80;39.00;;;;;;5008131;28;20033;-43
2022/05/01 02:14:55;;;;;;;2.33;1.35;;;22.80;39.00;;;;;;5007701;28;20026;-43
2022/05/01 02:17:21;;;;;;;2.78;1.70;;;22.80;39.00;;;;;;5007751;28;20037;-43
2022/05/01 02:19:46;;;;;;;2.33;1.40;;;22.80;39.00;;;;;;5008036;28;20033;-43
2022/05/01 02:22:15;;;;;;;2.38;1.45;;;22.80;39.00;;;;;;5007352;28;20614;-42
2022/05/01 02:24:40;;;;;;;3.08;1.58;;;22.80;39.00;;;;;;5007347;28;20264;-43
2022/05/01 02:27:06;;;;;;;3.13;1.70;;;22.80;39.10;;;;;;5007677;28;20111;-42
2022/05/01 02:29:32;;;;;;;2.60;1.40;;;22.70;39.10;;;;;;5007810;28;20041;-43
2022/05/01 02:31:57;;;;;;;2.33;1.50;;;22.80;39.10;;;;;;5007485;28;20531;-43
2022/05/01 02:34:23;;;;;;;2.60;1.42;;;22.80;39.10;;;;;;5005925;28;20026;-43
2022/05/01 02:36:52;;;;;;;2.50;1.50;;;22.80;39.10;;;;;;5007615;28;20037;-43
2022/05/01 02:39:19;;;;;;;2.85;1.55;;;22.70;39.10;;;;;;5007800;28;20121;-41
2022/05/01 02:41:45;;;;;;;2.42;1.60;;;22.70;39.10;;;;;;5007408;28;20490;-43
2022/05/01 02:44:11;;;;;;;3.13;1.60;;;22.70;39.10;;;;;;5007457;28;20125;-43
2022/05/01 02:46:37;;;;;;;2.65;1.35;;;22.70;39.10;;;;;;5006357;28;20110;-43
2022/05/01 02:49:05;;;;;;;2.60;1.38;;;22.80;39.10;;;;;;5007326;28;20210;-43
2022/05/01 02:51:31;;;;;;;3.42;1.42;;;22.70;39.10;;;;;;5005792;28;20034;-42
2022/05/01 02:53:58;;;;;;;2.38;1.40;;;22.80;39.10;;;;;;5006783;28;20026;-43
2022/05/01 02:56:25;;;;;;;2.47;1.40;;;22.70;39.10;;;;;;5007068;28;20113;-43
2022/05/01 02:58:51;;;;;;;2.58;1.33;;;22.70;39.10;;;;;;5007274;28;20022;-42
2022/05/01 03:01:16;;;;;;;2.60;1.30;;;22.70;39.10;;;;;;5006788;28;20029;-42
2022/05/01 03:03:42;;;;;;;2.58;1.45;;;22.70;39.10;;;;;;5007193;28;20088;-43
2022/05/01 03:06:08;;;;;;;2.50;1.40;;;22.70;39.00;;;;;;5006521;28;20604;-43
2022/05/01 03:08:34;;;;;;;2.45;1.33;;;22.70;39.10;;;;;;5007402;28;20034;-43
2022/05/01 03:11:01;;;;;;;2.05;1.13;;;22.70;39.10;;;;;;5006865;28;20469;-43
2022/05/01 03:13:28;;;;;;;2.88;1.40;;;22.70;39.10;;;;;;5006888;28;20044;-43
2022/05/01 03:15:53;;;;;;;2.70;1.60;;;22.70;39.10;;;;;;5007072;28;20033;-43
2022/05/01 03:23:49;;;;;;;2.33;1.40;;;22.70;39.10;;;;;;5006603;28;20105;-43
2022/05/01 03:26:18;;;;;;;2.47;1.48;;;22.70;39.20;;;;;;5006555;28;20112;-43
2022/05/01 03:28:45;;;;;;;2.47;1.33;;;22.70;39.10;;;;;;5007096;28;20116;-43
2022/05/01 03:31:15;;;;;;;2.58;1.40;;;22.70;39.10;;;;;;5006263;28;20546;-43
2022/05/01 03:33:42;;;;;;;2.15;1.30;;;22.70;39.10;;;;;;5006152;28;20113;-43
2022/05/01 03:36:09;;;;;;;2.70;1.48;;;22.70;39.10;;;;;;5006084;28;20084;-43
2022/05/01 03:38:36;;;;;;;2.78;1.50;;;22.70;39.10;;;;;;5006320;28;20273;-43
2022/05/01 03:41:05;;;;;;;1.95;1.10;;;22.70;39.10;;;;;;5005976;28;20036;-43
2022/05/01 03:43:32;;;;;;;2.25;1.23;;;22.70;39.10;;;;;;5006358;28;20121;-43
2022/05/01 03:45:59;;;;;;;2.53;1.40;;;22.70;39.10;;;;;;5006038;28;20030;-43
2022/05/01 03:48:25;;;;;;;2.00;1.30;;;22.70;39.10;;;;;;5006122;28;20063;-43
2022/05/01 03:50:53;;;;;;;2.67;1.35;;;22.70;39.10;;;;;;5005635;28;20038;-42
2022/05/01 03:53:22;;;;;;;2.38;1.30;;;22.70;39.10;;;;;;5006000;28;20540;-43
2022/05/01 03:55:48;;;;;;;2.10;1.10;;;22.70;39.10;;;;;;5006231;28;20080;-43
2022/05/01 03:58:15;;;;;;;1.92;1.15;;;22.70;39.10;;;;;;5005765;28;20026;-43
2022/05/01 04:00:44;;;;;;;2.22;1.23;;;22.70;39.20;;;;;;5005459;28;20034;-42
2022/05/01 04:03:15;;;;;;;2.40;1.35;;;22.70;39.20;;;;;;5005502;28;20033;-42
2022/05/01 04:05:41;;;;;;;2.40;1.50;;;22.70;39.20;;;;;;5005495;28;20510;-43
2022/05/01 04:08:08;;;;;;;3.22;1.50;;;22.70;39.20;;;;;;5005854;28;20096;-42
2022/05/01 04:10:40;;;;;;;2.28;1.42;;;22.70;39.20;;;;;;5005824;28;20022;-42
2022/05/01 04:13:06;;;;;;;2.27;1.47;;;22.60;39.20;;;;;;5005622;28;20075;-43
2022/05/01 04:15:33;;;;;;;2.05;1.20;;;22.70;39.20;;;;;;5005878;28;20117;-43
2022/05/01 04:18:02;;;;;;;2.17;1.27;;;22.70;39.20;;;;;;5005810;28;20056;-43
2022/05/01 04:20:28;;;;;;;2.38;1.27;;;22.70;39.30;;;;;;5005519;28;20060;-43
2022/05/01 04:22:54;;;;;;;1.92;1.23;;;22.60;39.20;;;;;;5005580;28;20517;-43
2022/05/01 04:25:26;;;;;;;2.10;1.20;;;22.70;39.30;;;;;;5005654;28;20026;-43
2022/05/01 04:28:02;;;;;;;2.45;1.20;;;22.60;39.20;;;;;;5004870;28;20033;-43
2022/05/01 04:30:31;;;;;;;2.20;1.40;;;22.70;39.30;;;;;;5005376;28;20033;-43
2022/05/01 04:33:15;;;;;;;3.03;1.50;;;22.70;39.40;;;;;;5005168;28;20062;-43
2022/05/01 04:35:46;;;;;;;2.30;1.20;;;22.60;39.30;;;;;;5005261;28;20531;-43
2022/05/01 04:38:14;;;;;;;2.05;1.33;;;22.60;39.30;;;;;;5005528;28;20034;-43
2022/05/01 04:40:46;;;;;;;2.08;1.30;;;22.60;39.30;;;;;;5005479;28;20030;-43
2022/05/01 04:43:20;;;;;;;1.90;1.15;;;22.70;39.40;;;;;;5004440;28;20045;-42
2022/05/01 04:45:50;;;;;;;2.63;1.45;;;22.60;39.30;;;;;;5005359;28;20440;-43
2022/05/01 04:48:17;;;;;;;2.53;1.33;;;22.70;39.40;;;;;;5006054;28;20050;-42
2022/05/01 04:50:45;;;;;;;2.33;1.40;;;22.60;39.40;;;;;;5009093;28;20026;-43
2022/05/01 04:53:13;;;;;;;2.47;1.30;;;22.60;39.30;;;;;;5009420;28;20076;-42
2022/05/01 04:55:40;;;;;;;2.60;1.38;;;22.60;39.30;;;;;;5009401;28;20096;-43
2022/05/01 04:58:08;;;;;;;1.90;1.10;;;22.60;39.30;;;;;;5008621;28;20413;-42
2022/05/01 05:00:35;;;;;;;2.50;1.13;;;22.70;39.40;;;;;;5009062;28;20108;-43
2022/05/01 05:03:01;;;;;;;1.92;1.23;;;22.60;39.30;;;;;;5008784;28;20041;-41
2022/05/01 05:05:28;;;;;;;2.00;1.13;;;22.70;39.40;;;;;;5008707;28;20080;-42
2022/05/01 05:07:55;;;;;;;2.28;1.23;;;22.70;39.40;;;;;;5008576;28;20080;-42
2022/05/01 05:10:21;;;;;;;1.83;1.08;;;22.60;39.40;;;;;;5009207;28;20538;-43
2022/05/01 05:12:48;;;;;;;1.50;0.98;;;22.60;39.30;;;;;;5008887;28;20060;-42
2022/05/01 05:15:16;;;;;;;3.00;1.20;;;22.60;39.40;;;;;;5008459;28;20210;-43
2022/05/01 05:17:43;;;;;;;2.60;1.40;;;22.70;39.50;;;;;;5008861;28;20042;-43
2022/05/01 05:20:12;;;;;;;1.85;1.02;;;22.70;39.50;;;;;;5008917;28;20249;-43
2022/05/01 05:22:40;;;;;;;2.22;1.23;;;22.70;39.50;;;;;;5008487;28;20108;-43
2022/05/01 05:25:09;;;;;;;2.10;1.25;;;22.70;39.60;;;;;;5008887;28;20398;-42
2022/05/01 05:27:35;;;;;;;1.80;1.00;;;22.70;39.50;;;;;;5008735;28;20065;-43
2022/05/01 05:30:01;;;;;;;2.35;1.30;;;22.70;39.50;;;;;;5008468;28;20068;-42
2022/05/01 05:32:27;;;;;;;2.30;1.15;;;22.80;39.50;;;;;;5008142;28;20018;-43
2022/05/01 05:34:53;;;;;;;2.53;1.33;;;22.80;39.50;;;;;;5008373;28;20034;-42
2022/05/01 05:37:19;;;;;;;3.58;1.63;;;22.90;39.50;;;;;;5008890;28;20061;-43
2022/05/01 05:39:46;;;;;;;2.55;1.40;;;22.90;39.50;;;;;;5008746;28;20226;-43
2022/05/01 05:42:12;;;;;;;1.83;1.05;;;23.00;39.40;;;;;;5008713;28;20037;-43
2022/05/01 05:44:39;;;;;;;2.75;1.38;;;23.00;39.40;;;;;;5006795;28;20041;-42
2022/05/01 05:47:05;;;;;;;2.05;1.08;;;23.00;39.30;;;;;;5007617;28;20034;-43
2022/05/01 05:49:31;;;;;;;1.73;0.93;;;23.10;39.40;;;;;;5008005;28;20422;-42
2022/05/01 05:51:58;;;;;;;1.90;1.10;;;23.10;39.30;;;;;;5006753;28;20034;-43
2022/05/01 05:54:24;;;;;;;1.98;1.08;;;23.20;39.30;;;;;;5008031;28;20033;-43
2022/05/01 05:56:49;;;;;;;1.80;1.00;;;23.20;39.20;;;;;;5007992;28;20034;-43
2022/05/01 05:59:16;;;;;;;2.35;1.30;;;23.30;39.20;;;;;;5007710;28;20057;-42
2022/05/01 06:01:42;;;;;;;2.08;1.20;;;23.30;39.20;;;;;;5008165;28;20033;-43
2022/05/01 06:04:07;;;;;;;1.92;0.98;;;23.40;39.10;;;;;;5008180;28;20034;-43
2022/05/01 06:06:34;;;;;;;2.47;1.20;;;23.40;39.10;;;;;;5007251;28;20430;-43
2022/05/01 06:09:00;;;;;;;2.10;1.30;;;23.40;39.00;;;;;;5008103;28;20026;-43
2022/05/01 06:11:26;;;;;;;1.77;0.95;;;23.50;39.10;;;;;;5007625;28;20077;-43
2022/05/01 06:13:53;;;;;;;1.77;1.05;;;23.50;39.00;;;;;;5007416;28;20026;-43
2022/05/01 06:16:19;;;;;;;2.05;1.30;;;23.50;39.00;;;;;;5008031;28;20032;-43
2022/05/01 06:18:45;;;;;;;1.77;1.02;;;23.50;38.90;;;;;;5007735;28;20026;-43
2022/05/01 06:21:11;;;;;;;1.73;1.02;;;23.50;38.90;;;;;;5007277;28;20038;-43
2022/05/01 06:23:38;;;;;;;1.90;1.00;;;23.50;38.90;;;;;;5007727;28;20034;-43
2022/05/01 06:26:05;;;;;;;2.03;1.10;;;23.60;38.90;;;;;;5007293;28;20022;-43
2022/05/01 06:28:31;;;;;;;2.03;1.27;;;23.60;38.80;;;;;;5007430;28;20030;-43
2022/05/01 06:30:58;;;;;;;2.70;1.10;;;23.60;38.80;;;;;;5007590;28;20092;-44
2022/05/01 06:33:25;;;;;;;1.70;1.02;;;23.60;38.70;;;;;;5007483;28;20684;-43
2022/05/01 06:35:53;;;;;;;2.13;1.30;;;23.60;38.70;;;;;;5007355;28;20033;-43
2022/05/01 06:38:19;;;;;;;1.95;1.20;;;23.60;38.70;;;;;;5007293;28;20022;-43
2022/05/01 06:40:46;;;;;;;1.85;1.10;;;23.60;38.60;;;;;;5006947;28;20030;-44
2022/05/01 06:43:13;;;;;;;2.10;1.15;;;23.60;38.70;;;;;;5007093;28;20101;-43
2022/05/01 06:45:40;;;;;;;2.15;1.10;;;23.60;38.70;;;;;;5007159;28;20109;-43
2022/05/01 06:48:07;;;;;;;2.20;1.30;;;23.60;38.70;;;;;;5004998;28;20608;-43
2022/05/01 06:50:33;;;;;;;1.70;0.93;;;23.60;38.70;;;;;;5006861;28;20486;-43
2022/05/01 06:52:59;;;;;;;1.67;0.90;;;23.70;38.80;;;;;;5006677;28;20482;-43
2022/05/01 06:55:25;;;;;;;1.70;1.02;;;23.60;38.70;;;;;;5006609;28;20087;-42
2022/05/01 06:57:55;;;;;;;1.88;1.10;;;23.70;38.80;;;;;;5007241;28;20044;-43
2022/05/01 07:00:22;;;;;;;1.77;1.00;;;23.70;38.80;;;;;;5005759;28;20018;-43
2022/05/01 07:02:49;;;;;;;1.70;1.05;;;23.70;38.80;;;;;;5006159;28;20057;-43
2022/05/01 07:05:15;;;;;;;1.35;0.82;;;23.60;38.80;;;;;;5004474;28;20026;-43
2022/05/01 07:07:41;;;;;;;1.40;0.80;;;23.60;38.80;;;;;;5006678;28;20044;-43
2022/05/01 07:10:08;;;;;;;1.80;1.10;;;23.70;38.90;;;;;;5006470;28;20022;-43
2022/05/01 07:12:35;;;;;;;1.73;1.05;;;23.60;38.80;;;;;;5005021;28;20100;-43
2022/05/01 07:15:00;;;;;;;1.80;1.08;;;23.60;39.20;;;;;;5006447;28;20107;-43
2022/05/01 07:17:26;;;;;;;1.80;1.00;;;23.60;38.80;;;;;;5006595;28;20021;-43
2022/05/01 07:19:52;;;;;;;2.13;1.30;;;23.70;38.90;;;;;;5005880;28;20018;-43
2022/05/01 07:22:18;;;;;;;1.73;1.00;;;23.70;38.80;;;;;;5005599;28;20038;-43
2022/05/01 07:24:43;;;;;;;1.67;0.98;;;23.60;38.70;;;;;;5006552;28;20397;-43
2022/05/01 07:27:10;;;;;;;1.80;1.10;;;23.60;38.80;;;;;;5006391;28;20394;-42
2022/05/01 07:29:36;;;;;;;1.70;1.08;;;23.60;38.70;;;;;;5006469;28;20022;-43
2022/05/01 07:32:02;;;;;;;2.22;1.25;;;23.60;38.70;;;;;;5005831;28;20040;-43
2022/05/01 07:34:27;;;;;;;1.58;1.00;;;23.60;38.80;;;;;;5005915;28;20022;-43
2022/05/01 07:36:53;;;;;;;2.05;1.20;;;23.60;38.80;;;;;;5005810;28;20393;-43
2022/05/01 07:39:19;;;;;;;1.95;1.10;;;23.60;38.80;;;;;;5005953;28;20065;-43
2022/05/01 07:41:45;;;;;;;2.20;1.30;;;23.60;38.80;;;;;;5005928;28;20030;-43
2022/05/01 07:44:13;;;;;;;1.65;0.93;;;23.60;38.80;;;;;;5005996;28;20045;-43
2022/05/01 07:46:39;;;;;;;1.90;1.10;;;23.60;38.80;;;;;;5005948;28;20037;-44
2022/05/01 07:49:09;;;;;;;1.25;0.85;;;23.60;38.80;;;;;;5005795;28;20028;-43
2022/05/01 07:51:35;;;;;;;2.47;1.27;;;23.60;38.80;;;;;;5005551;28;20044;-43
2022/05/01 07:54:05;;;;;;;1.77;1.10;;;23.60;38.90;;;;;;5005883;28;20088;-43
2022/05/01 07:56:32;;;;;;;1.70;0.98;;;23.60;38.80;;;;;;5005371;28;20026;-44
2022/05/01 07:58:58;;;;;;;2.10;1.20;;;23.50;38.90;;;;;;5004531;28;20564;-43
2022/05/01 08:01:24;;;;;;;1.70;1.10;;;23.60;38.80;;;;;;5005411;28;20065;-43
2022/05/01 08:06:36;;;;;;;1.60;1.05;;;23.60;38.80;;;;;;5004751;28;20037;-43
2022/05/01 08:09:03;;;;;;;1.52;0.90;;;23.60;38.80;;;;;;5005830;28;20258;-43
2022/05/01 08:11:29;;;;;;;1.80;1.10;;;23.50;38.80;;;;;;5005540;28;20036;-42
2022/05/01 08:13:55;;;;;;;1.70;0.98;;;23.50;38.80;;;;;;5005812;28;20053;-43
2022/05/01 08:16:21;;;;;;;2.00;1.00;;;23.50;38.80;;;;;;5005558;28;20022;-43
2022/05/01 08:21:33;;;;;;;0.90;0.70;;;23.60;38.80;;;;;;5004626;28;20107;-44
2022/05/01 08:24:00;;;;;;;1.65;0.93;;;23.50;38.80;;;;;;5004852;28;20645;-43
2022/05/01 08:26:26;;;;;;;1.88;1.17;;;23.50;38.90;;;;;;5005273;28;20025;-43
2022/05/01 08:28:54;;;;;;;2.38;1.08;;;23.50;38.90;;;;;;5005615;28;20084;-43
2022/05/01 08:31:21;;;;;;;1.45;1.00;;;23.50;38.90;;;;;;5005263;28;20030;-43
2022/05/01 08:33:47;;;;;;;1.52;0.88;;;23.50;38.90;;;;;;5005268;28;20026;-43
2022/05/01 08:36:13;;;;;;;2.00;1.15;;;23.50;38.90;;;;;;5005126;28;20034;-43
2022/05/01 08:38:39;;;;;;;2.15;1.10;;;23.50;38.90;;;;;;5005723;28;20418;-43
2022/05/01 08:41:07;;;;;;;1.92;1.10;;;23.50;39.00;;;;;;5004315;28;20033;-43
2022/05/01 08:43:34;;;;;;;1.75;1.02;;;23.50;39.00;;;;;;5004428;28;20052;-43
2022/05/01 08:46:28;;;;;;;1.65;0.95;;;23.50;39.00;;;;;;5002785;28;20080;-44
2022/05/01 08:49:05;;;;;;;1.67;1.08;;;23.50;39.00;;;;;;5003820;28;20117;-42
2022/05/01 08:51:36;;;;;;;2.40;1.40;;;23.50;39.60;;;;;;5004615;28;20799;-42
2022/05/01 08:54:07;;;;;;;1.70;1.05;;;23.50;39.00;;;;;;5005335;28;20029;-43
2022/05/01 08:56:34;;;;;;;1.70;0.93;;;23.50;39.00;;;;;;5005097;28;20033;-42
2022/05/01 08:59:25;;;;;;;1.42;0.90;;;23.50;39.00;;;;;;5005284;28;20026;-43
2022/05/01 09:01:52;;;;;;;1.80;1.00;;;23.50;39.00;;;;;;5005047;28;20037;-43
2022/05/01 09:04:18;;;;;;;2.15;1.17;;;23.50;39.00;;;;;;5005007;28;20107;-43
2022/05/01 09:06:45;;;;;;;1.90;1.08;;;23.50;39.00;;;;;;5003876;28;20509;-43
2022/05/01 09:09:17;;;;;;;1.83;1.00;;;23.50;39.10;;;;;;5005248;28;20097;-43
2022/05/01 09:14:29;;;;;;;1.42;0.90;;;23.50;39.00;;;;;;4993041;28;20030;-43
2022/05/01 09:17:12;;;;;;;1.88;1.17;;;23.50;39.10;;;;;;5004879;28;20114;-43
2022/05/01 09:19:38;;;;;;;1.60;0.90;;;23.50;39.10;;;;;;5004391;28;20038;-43
2022/05/01 09:22:04;;;;;;;1.75;1.13;;;23.50;39.10;;;;;;5003530;28;20026;-43
2022/05/01 09:24:31;;;;;;;2.35;1.05;;;23.50;39.10;;;;;;5003785;28;20085;-43
2022/05/01 09:26:58;;;;;;;1.73;1.00;;;23.50;39.10;;;;;;5004451;28;20080;-43
2022/05/01 09:29:26;;;;;;;1.60;1.00;;;23.60;39.70;;;;;;5004713;28;20026;-43
2022/05/01 09:31:55;;;;;;;1.98;1.20;;;23.60;39.00;;;;;;5002414;28;20052;-43
2022/05/01 09:34:29;;;;;;;1.52;0.90;;;23.60;39.00;;;;;;5005054;28;20034;-43
2022/05/01 09:36:56;;;;;;;1.80;1.08;;;23.60;38.90;;;;;;5007511;28;20057;-43
2022/05/01 09:39:23;;;;;;;1.75;1.17;;;23.60;38.90;;;;;;5008237;28;20030;-43
2022/05/01 09:41:50;;;;;;;1.88;1.10;;;23.60;38.90;;;;;;5008198;28;20022;-43
2022/05/01 09:44:17;;;;;;;1.90;1.10;;;23.60;38.90;;;;;;5008138;28;20084;-43
2022/05/01 09:46:47;;;;;;;2.17;1.10;;;23.60;39.00;;;;;;5008140;28;20066;-43
2022/05/01 09:49:15;;;;;;;1.70;0.95;;;23.60;38.90;;;;;;5007545;28;20033;-43
2022/05/01 09:51:59;;;;;;;2.05;1.10;;;23.60;39.00;;;;;;5007621;28;20461;-43
2022/05/01 09:54:26;;;;;;;2.08;1.17;;;23.60;39.00;;;;;;5008278;28;20030;-43
2022/05/01 09:56:57;;;;;;;1.85;1.10;;;23.60;39.00;;;;;;5008099;28;20133;-43
2022/05/01 09:59:24;;;;;;;2.08;1.10;;;23.60;39.00;;;;;;5008045;28;20091;-43
2022/05/01 10:02:06;;;;;;;1.42;1.00;;;23.60;39.00;;;;;;5007090;28;20052;-43
2022/05/01 10:04:33;;;;;;;1.52;1.08;;;23.60;39.00;;;;;;5008154;28;20046;-43
2022/05/01 10:07:01;;;;;;;1.50;1.00;;;23.60;39.00;;;;;;5006428;28;20054;-43
2022/05/01 10:09:32;;;;;;;1.60;0.95;;;23.60;39.00;;;;;;5007970;28;20453;-43
2022/05/01 10:12:03;;;;;;;2.08;0.90;;;23.60;39.00;;;;;;5007462;28;20473;-43
2022/05/01 10:14:29;;;;;;;1.98;1.17;;;23.60;39.10;;;;;;5007483;28;20037;-43
2022/05/01 10:16:56;;;;;;;1.48;1.00;;;23.60;39.00;;;;;;5007944;28;20045;-43
2022/05/01 10:19:23;;;;;;;1.73;1.00;;;23.60;39.00;;;;;;5007593;28;20039;-43
2022/05/01 10:21:52;;;;;;;2.15;1.10;;;23.60;39.00;;;;;;5007471;28;20029;-43
2022/05/01 10:24:20;;;;;;;2.05;1.08;;;23.60;39.00;;;;;;5007324;28;20502;-43
2022/05/01 10:27:14;;;;;;;1.92;1.20;;;23.50;39.00;;;;;;5007267;28;20034;-43
2022/05/01 10:32:48;;;;;;;2.75;1.02;;;23.60;39.00;;;;;;5007184;28;20037;-43
2022/05/01 10:35:33;;;;;;;1.65;1.00;;;23.60;39.10;;;;;;5006770;28;20521;-43
2022/05/01 10:38:38;;;;;;;1.63;0.82;;;23.60;39.00;;;;;;5006856;28;20073;-42
2022/05/01 10:41:06;;;;;;;2.03;1.15;;;23.50;39.10;;;;;;5007267;28;20081;-43
2022/05/01 10:43:37;;;;;;;2.03;1.10;;;23.50;39.10;;;;;;5006917;28;20201;-43
2022/05/01 10:46:19;;;;;;;1.77;1.10;;;23.50;39.10;;;;;;5006356;28;20029;-43
2022/05/01 10:48:45;;;;;;;1.80;1.10;;;23.50;39.10;;;;;;5006979;28;20037;-43
2022/05/01 10:51:34;;;;;;;2.00;1.33;;;23.50;39.10;;;;;;5005994;28;20022;-42
2022/05/01 10:54:17;;;;;;;2.35;1.25;;;23.50;39.20;;;;;;5006296;28;20029;-43
2022/05/01 10:56:50;;;;;;;2.15;1.00;;;23.50;39.20;;;;;;5006754;28;20025;-43
2022/05/01 10:59:34;;;;;;;1.98;1.20;;;23.50;39.20;;;;;;5006197;28;20092;-43
2022/05/01 11:02:17;;;;;;;1.90;1.00;;;23.50;39.20;;;;;;5006250;28;20036;-44
2022/05/01 11:04:44;;;;;;;1.80;1.08;;;23.50;39.10;;;;;;5005553;28;20026;-43
2022/05/01 11:07:12;;;;;;;1.92;1.00;;;23.50;39.10;;;;;;5006491;28;20069;-43
2022/05/01 11:09:39;;;;;;;1.73;0.98;;;23.50;39.10;;;;;;5006444;28;20022;-43
2022/05/01 11:12:10;;;;;;;1.60;1.02;;;23.50;39.10;;;;;;5006668;28;20038;-43
2022/05/01 11:14:53;;;;;;;1.60;1.00;;;23.50;39.10;;;;;;5005027;28;20022;-43
2022/05/01 11:17:37;;;;;;;2.55;1.30;;;23.50;39.20;;;;;;5005286;28;20034;-44
2022/05/01 11:20:13;;;;;;;1.77;0.90;;;23.50;39.20;;;;;;5006162;28;20030;-43
2022/05/01 11:22:39;;;;;;;1.00;0.75;;;23.50;39.20;;;;;;5006237;28;20030;-43
2022/05/01 11:25:10;;;;;;;1.58;0.90;;;23.50;39.20;;;;;;5006744;28;20030;-43
2022/05/01 11:27:53;;;;;;;2.15;1.27;;;23.50;39.20;;;;;;5006409;28;20026;-43
2022/05/01 11:30:28;;;;;;;1.30;0.90;;;23.50;39.20;;;;;;5006456;28;20028;-43
2022/05/01 11:33:03;;;;;;;1.90;1.00;;;23.50;39.20;;;;;;5006073;28;20030;-43
2022/05/01 11:35:54;;;;;;;1.90;0.95;;;23.50;39.30;;;;;;5005905;28;20706;-43
2022/05/01 11:38:38;;;;;;;1.83;1.13;;;23.50;39.20;;;;;;5006106;28;20034;-43
2022/05/01 11:41:06;;;;;;;1.42;0.90;;;23.50;39.20;;;;;;5006025;28;20030;-43
2022/05/01 11:43:32;;;;;;;1.52;0.90;;;23.50;39.20;;;;;;5005971;28;20041;-43
2022/05/01 11:46:03;;;;;;;2.45;1.17;;;23.50;39.10;;;;;;5006664;28;20474;-43
2022/05/01 11:48:29;;;;;;;1.70;1.00;;;23.50;39.10;;;;;;5005948;28;20038;-43
2022/05/01 11:50:58;;;;;;;1.25;0.77;;;23.60;39.00;;;;;;5005616;28;20030;-43
2022/05/01 11:53:25;;;;;;;2.17;1.23;;;23.60;39.40;;;;;;5006186;28;20488;-43
2022/05/01 12:04:29;;;;;;;1.75;1.00;;;23.60;39.10;;;;;;4986042;28;20045;-43
2022/05/01 12:06:58;;;;;;;1.63;0.90;;;23.50;39.20;;;;;;5003545;28;20038;-43
2022/05/01 12:09:26;;;;;;;1.23;0.85;;;23.50;39.20;;;;;;5005809;28;20033;-45
2022/05/01 12:11:52;;;;;;;2.22;1.23;;;23.50;39.20;;;;;;5005503;28;20576;-43
2022/05/01 12:14:17;;;;;;;1.70;0.98;;;23.50;39.20;;;;;;5005858;28;20026;-43
2022/05/01 12:16:46;;;;;;;2.33;1.30;;;23.50;39.20;;;;;;5005843;28;20021;-43
2022/05/01 12:19:12;;;;;;;1.65;1.00;;;23.50;39.20;;;;;;5005656;28;20036;-43
2022/05/01 12:21:38;;;;;;;1.75;1.00;;;23.50;39.20;;;;;;5005654;28;20026;-43
2022/05/01 12:24:05;;;;;;;1.15;0.88;;;23.50;39.20;;;;;;5005391;28;20070;-43
2022/05/01 12:26:34;;;;;;;1.90;1.00;;;23.50;39.20;;;;;;5005544;28;20491;-43
2022/05/01 12:29:00;;;;;;;1.20;0.80;;;23.50;39.20;;;;;;5005488;28;20117;-43
2022/05/01 12:31:28;;;;;;;1.50;0.90;;;23.50;39.10;;;;;;5005225;28;20113;-43
2022/05/01 12:33:54;;;;;;;1.58;0.90;;;23.50;39.20;;;;;;5004757;28;20049;-43
2022/05/01 12:36:27;;;;;;;2.05;1.17;;;23.50;39.20;;;;;;5003993;28;20634;-42
2022/05/01 12:39:04;;;;;;;1.65;1.13;;;23.50;39.20;;;;;;5005413;28;20200;-43
2022/05/01 12:44:14;;;;;;;1.63;0.88;;;23.50;39.20;;;;;;5005368;28;20033;-43
2022/05/01 12:46:52;;;;;;;1.63;1.00;;;23.50;39.20;;;;;;5005098;28;20026;-43
2022/05/01 12:49:25;;;;;;;2.05;1.10;;;23.50;39.20;;;;;;5005395;28;20080;-43
2022/05/01 12:51:51;;;;;;;2.58;1.25;;;23.50;39.20;;;;;;5004848;28;20414;-42
2022/05/01 12:54:19;;;;;;;1.63;1.00;;;23.50;39.20;;;;;;5005257;28;20034;-43
2022/05/01 12:56:45;;;;;;;1.80;0.90;;;23.50;39.20;;;;;;5004783;28;20199;-43
2022/05/01 12:59:31;;;;;;;1.85;1.08;;;23.50;39.20;;;;;;5005400;28;20018;-43
2022/05/01 13:01:59;;;;;;;2.28;0.93;;;23.50;39.20;;;;;;5004619;28;20069;-42
2022/05/01 13:04:25;;;;;;;1.90;0.93;;;23.50;39.20;;;;;;5005205;28;20058;-42
2022/05/01 13:06:51;;;;;;;1.40;0.80;;;23.50;39.30;;;;;;5003991;28;20042;-43
2022/05/01 13:09:17;;;;;;;1.73;1.05;;;23.50;39.20;;;;;;5005499;28;20030;-43
2022/05/01 13:12:02;;;;;;;1.92;1.10;;;23.50;39.20;;;;;;5008964;28;20556;-43
2022/05/01 13:14:33;;;;;;;1.63;0.90;;;23.50;39.20;;;;;;5008907;28;20088;-43
2022/05/01 13:17:10;;;;;;;1.08;0.80;;;23.50;39.20;;;;;;5008696;28;20061;-43
2022/05/01 13:19:38;;;;;;;1.80;1.00;;;23.50;39.10;;;;;;5008961;28;20246;-44
2022/05/01 13:22:08;;;;;;;1.20;0.77;;;23.50;39.20;;;;;;5008307;28;20617;-43
2022/05/01 13:24:36;;;;;;;1.73;0.80;;;23.50;39.20;;;;;;5009028;28;20056;-43
2022/05/01 13:27:06;;;;;;;1.60;1.00;;;23.50;39.20;;;;;;5008848;28;20109;-44
2022/05/01 13:29:34;;;;;;;1.67;0.88;;;23.50;39.20;;;;;;5008478;28;20042;-43
2022/05/01 13:32:06;;;;;;;1.83;0.98;;;23.50;39.20;;;;;;5008355;28;20061;-44